Time;durP1;ratioP1;P1;durP2;ratioP2;P2;SDS_P1;SDS_P2;PMS_P1;PMS_P2;Temp;Humidity;BMP_temperature;BMP_pressure;BME280_temperature;BME280_humidity;BME280_pressure;Samples;Min_cycle;Max_cycle;Signal;HPM_P1;HPM_P2
2023/05/03 00:02:10;;;;;;;1.08;0.30;;;6.00;99.90;;;;;;5106403;28;20069;-82
2023/05/03 00:04:40;;;;;;;2.03;0.43;;;6.00;99.90;;;;;;5115216;28;20043;-83
2023/05/03 00:07:07;;;;;;;0.98;0.60;;;6.00;99.90;;;;;;5124323;27;20104;-83
2023/05/03 00:09:35;;;;;;;3.25;0.50;;;6.00;99.90;;;;;;5137336;27;20599;-83
2023/05/03 00:12:02;;;;;;;0.60;0.55;;;6.00;99.90;;;;;;5118246;27;20534;-84
2023/05/03 00:14:30;;;;;;;1.45;0.63;;;6.10;99.90;;;;;;5113655;28;20100;-84
2023/05/03 00:16:57;;;;;;;0.60;0.20;;;6.10;99.90;;;;;;5112812;28;20096;-82
2023/05/03 00:19:25;;;;;;;0.63;0.55;;;6.10;99.90;;;;;;5114977;28;20039;-85
2023/05/03 00:21:54;;;;;;;0.95;0.40;;;6.10;99.90;;;;;;5113683;28;20051;-84
2023/05/03 00:24:22;;;;;;;2.05;0.50;;;6.20;99.90;;;;;;5105522;28;20136;-83
2023/05/03 00:26:49;;;;;;;1.75;0.50;;;6.10;99.90;;;;;;5112537;28;20269;-86
2023/05/03 00:29:17;;;;;;;3.13;1.23;;;6.10;99.90;;;;;;5112632;28;20044;-85
2023/05/03 00:31:45;;;;;;;1.60;0.52;;;6.20;99.90;;;;;;5095809;28;20048;-84
2023/05/03 00:34:12;;;;;;;0.93;0.50;;;6.20;99.90;;;;;;5113337;28;20043;-86
2023/05/03 00:36:39;;;;;;;1.48;0.60;;;6.20;99.90;;;;;;5114378;28;20048;-84
2023/05/03 00:39:08;;;;;;;5.85;0.70;;;6.20;99.90;;;;;;5085636;28;20044;-82
2023/05/03 00:41:36;;;;;;;0.80;0.50;;;6.20;99.90;;;;;;5103732;28;20039;-85
2023/05/03 00:44:03;;;;;;;3.33;0.60;;;6.20;99.90;;;;;;5113839;28;20047;-83
2023/05/03 00:46:31;;;;;;;2.17;0.90;;;6.20;99.90;;;;;;5113419;28;20047;-85
2023/05/03 00:48:58;;;;;;;1.75;0.65;;;6.20;99.90;;;;;;5113731;28;20390;-82
2023/05/03 00:51:27;;;;;;;1.15;0.68;;;6.20;99.90;;;;;;5102130;28;20596;-84
2023/05/03 00:53:56;;;;;;;3.90;0.50;;;6.20;99.90;;;;;;5106871;28;20052;-84
2023/05/03 00:56:25;;;;;;;2.10;0.75;;;6.30;99.90;;;;;;5114204;28;20053;-84
2023/05/03 00:58:53;;;;;;;1.08;0.60;;;6.30;99.90;;;;;;5111242;28;20099;-83
2023/05/03 01:01:20;;;;;;;2.70;0.80;;;6.20;99.90;;;;;;5077379;28;20055;-83
2023/05/03 01:03:49;;;;;;;1.25;0.50;;;6.30;99.90;;;;;;5087180;28;20043;-84
2023/05/03 01:06:26;;;;;;;1.98;0.90;;;6.30;99.90;;;;;;5112644;28;20048;-83
2023/05/03 01:08:59;;;;;;;1.95;0.50;;;6.30;99.90;;;;;;5111579;28;20153;-84
2023/05/03 01:11:37;;;;;;;0.70;0.60;;;6.30;99.90;;;;;;5111929;28;20040;-83
2023/05/03 01:14:17;;;;;;;5.32;0.90;;;6.30;99.90;;;;;;5114248;28;20052;-82
2023/05/03 01:16:53;;;;;;;2.20;0.80;;;6.30;99.90;;;;;;5105294;28;20048;-83
2023/05/03 01:19:30;;;;;;;1.05;0.47;;;6.30;99.90;;;;;;5108317;28;20043;-84
2023/05/03 01:22:10;;;;;;;2.15;0.60;;;6.30;99.90;;;;;;5106635;28;20112;-84
2023/05/03 01:24:41;;;;;;;1.23;0.60;;;6.30;99.90;;;;;;5113283;28;20142;-85
2023/05/03 01:27:10;;;;;;;2.33;0.73;;;6.30;99.90;;;;;;5110977;28;20055;-83
2023/05/03 01:29:38;;;;;;;1.50;0.90;;;6.30;99.90;;;;;;5112519;28;20130;-84
2023/05/03 01:32:13;;;;;;;0.73;0.50;;;6.30;99.90;;;;;;5113015;28;20040;-84
2023/05/03 01:34:57;;;;;;;1.48;0.82;;;6.30;99.90;;;;;;5091211;28;20524;-84
2023/05/03 01:37:25;;;;;;;1.52;0.95;;;6.30;99.90;;;;;;5110075;28;20040;-83
2023/05/03 01:39:59;;;;;;;2.47;0.70;;;6.40;99.90;;;;;;5113749;28;20681;-84
2023/05/03 01:42:29;;;;;;;1.38;0.88;;;6.40;99.90;;;;;;5110648;28;20042;-82
2023/05/03 01:44:57;;;;;;;1.08;0.60;;;6.40;99.90;;;;;;5126685;27;20051;-84
2023/05/03 01:47:25;;;;;;;2.05;0.70;;;6.40;99.90;;;;;;5101502;27;20047;-84
2023/05/03 01:49:53;;;;;;;0.73;0.73;;;6.40;99.90;;;;;;5114222;28;20504;-83
2023/05/03 01:52:21;;;;;;;1.90;0.68;;;6.40;99.90;;;;;;5110320;28;20039;-84
2023/05/03 01:54:48;;;;;;;3.13;0.60;;;6.40;99.90;;;;;;5111869;28;20412;-83
2023/05/03 01:57:15;;;;;;;3.55;1.02;;;6.40;99.90;;;;;;5113294;28;20090;-84
2023/05/03 01:59:44;;;;;;;2.53;0.60;;;6.40;99.90;;;;;;5110125;28;20071;-84
2023/05/03 02:02:11;;;;;;;0.80;0.60;;;6.50;99.90;;;;;;5091889;28;20036;-83
2023/05/03 02:04:41;;;;;;;1.52;0.70;;;6.40;99.90;;;;;;5111632;28;20083;-83
2023/05/03 02:07:08;;;;;;;0.82;0.73;;;6.40;99.90;;;;;;5112019;28;20120;-84
2023/05/03 02:09:36;;;;;;;1.38;0.85;;;6.40;99.90;;;;;;5086903;28;20079;-83
2023/05/03 02:12:03;;;;;;;2.90;0.77;;;6.40;99.90;;;;;;5111270;28;20047;-84
2023/05/03 02:14:31;;;;;;;1.95;0.80;;;6.30;99.90;;;;;;5112600;28;20134;-84
2023/05/03 02:17:01;;;;;;;2.60;0.70;;;6.30;99.90;;;;;;5115408;28;20055;-84
2023/05/03 02:19:29;;;;;;;4.57;0.68;;;6.30;99.90;;;;;;5116453;28;20054;-83
2023/05/03 02:21:57;;;;;;;3.35;0.70;;;6.30;99.90;;;;;;5111952;28;20055;-84
2023/05/03 02:24:24;;;;;;;0.80;0.80;;;6.30;99.90;;;;;;5111499;28;20056;-82
2023/05/03 02:26:51;;;;;;;2.05;0.60;;;6.30;99.90;;;;;;5113130;28;20333;-84
2023/05/03 02:29:19;;;;;;;2.58;0.68;;;6.30;99.90;;;;;;5109421;28;20071;-84
2023/05/03 02:31:46;;;;;;;2.00;1.25;;;6.20;99.90;;;;;;5108327;28;20154;-84
2023/05/03 02:34:15;;;;;;;0.95;0.70;;;6.30;99.90;;;;;;5110528;28;20054;-84
2023/05/03 02:36:42;;;;;;;1.60;0.80;;;6.30;99.90;;;;;;5111016;28;20127;-83
2023/05/03 02:39:10;;;;;;;2.80;1.02;;;6.30;99.90;;;;;;5109981;28;20044;-85
2023/05/03 02:41:37;;;;;;;1.40;1.00;;;6.30;99.90;;;;;;5111021;28;20055;-85
2023/05/03 02:44:04;;;;;;;3.05;0.93;;;6.40;99.90;;;;;;5110657;28;20048;-82
2023/05/03 02:46:32;;;;;;;2.47;0.73;;;6.40;99.90;;;;;;5112085;28;20492;-83
2023/05/03 02:48:59;;;;;;;1.27;0.80;;;6.40;99.90;;;;;;5110250;27;20129;-83
2023/05/03 02:51:28;;;;;;;1.25;0.70;;;6.50;99.90;;;;;;5110468;28;20542;-83
2023/05/03 02:53:56;;;;;;;1.95;0.90;;;6.50;99.90;;;;;;5078376;28;20062;-83
2023/05/03 02:56:25;;;;;;;1.67;0.70;;;6.50;99.90;;;;;;5105088;28;20044;-84
2023/05/03 02:58:52;;;;;;;3.05;0.80;;;6.50;99.90;;;;;;5108280;28;20080;-84
2023/05/03 03:01:22;;;;;;;1.00;0.90;;;6.50;99.90;;;;;;5109183;28;20407;-83
2023/05/03 03:03:49;;;;;;;3.22;0.77;;;6.50;99.90;;;;;;5111072;28;20462;-83
2023/05/03 03:06:16;;;;;;;1.13;0.60;;;6.50;99.90;;;;;;5111526;28;20093;-84
2023/05/03 03:08:45;;;;;;;3.65;0.75;;;6.50;99.90;;;;;;5109409;28;20051;-85
2023/05/03 03:11:13;;;;;;;2.92;0.80;;;6.50;99.90;;;;;;5110370;28;20504;-85
2023/05/03 03:13:40;;;;;;;3.10;0.98;;;6.40;99.90;;;;;;5088568;28;20043;-84
2023/05/03 03:16:08;;;;;;;2.55;1.10;;;6.50;99.90;;;;;;5091227;28;20047;-83
2023/05/03 03:18:36;;;;;;;1.67;0.90;;;6.50;99.90;;;;;;5073582;28;20102;-83
2023/05/03 03:21:08;;;;;;;3.47;0.80;;;6.50;99.90;;;;;;5102225;28;20044;-83
2023/05/03 03:23:36;;;;;;;1.25;1.00;;;6.50;99.90;;;;;;5104443;28;20044;-82
2023/05/03 03:26:07;;;;;;;1.10;1.00;;;6.50;99.90;;;;;;5109346;28;20554;-84
2023/05/03 03:28:35;;;;;;;0.60;0.50;;;6.50;99.90;;;;;;5105316;28;20131;-82
2023/05/03 03:31:07;;;;;;;3.60;0.93;;;6.50;99.90;;;;;;5093910;28;20131;-83
2023/05/03 03:33:35;;;;;;;6.03;0.88;;;6.50;99.90;;;;;;5091608;28;20054;-80
2023/05/03 03:36:10;;;;;;;1.25;0.80;;;6.60;99.90;;;;;;5097131;28;20075;-81
2023/05/03 03:38:40;;;;;;;1.58;0.68;;;6.60;99.90;;;;;;5077634;28;20052;-81
2023/05/03 03:41:12;;;;;;;1.00;0.85;;;6.70;99.90;;;;;;5096502;28;20044;-82
2023/05/03 03:43:39;;;;;;;1.30;0.82;;;6.70;99.90;;;;;;5111610;28;20047;-81
2023/05/03 03:46:11;;;;;;;0.70;0.70;;;6.70;99.90;;;;;;5109252;28;20075;-82
2023/05/03 03:48:39;;;;;;;6.80;1.67;;;6.70;99.90;;;;;;5096102;28;20121;-81
2023/05/03 03:51:07;;;;;;;3.78;1.13;;;6.60;99.90;;;;;;5106448;28;20052;-82
2023/05/03 03:53:40;;;;;;;1.65;0.90;;;6.60;99.90;;;;;;5113795;28;20411;-83
2023/05/03 03:56:08;;;;;;;2.33;0.70;;;6.60;99.90;;;;;;5089255;28;20051;-84
2023/05/03 03:58:38;;;;;;;2.83;0.82;;;6.60;99.90;;;;;;5109794;28;20129;-82
2023/05/03 04:01:08;;;;;;;4.45;0.75;;;6.50;99.90;;;;;;5112085;28;20088;-83
2023/05/03 04:03:35;;;;;;;1.60;0.85;;;6.50;99.90;;;;;;5113307;28;20126;-82
2023/05/03 04:06:03;;;;;;;2.55;0.90;;;6.50;99.90;;;;;;5104797;28;20052;-84
2023/05/03 04:08:31;;;;;;;1.27;0.70;;;6.60;99.90;;;;;;5109692;28;20052;-81
2023/05/03 04:10:59;;;;;;;2.58;0.70;;;6.70;99.90;;;;;;5101104;28;20433;-82
2023/05/03 04:13:26;;;;;;;0.93;0.60;;;6.70;99.90;;;;;;5084475;28;20420;-83
2023/05/03 04:16:00;;;;;;;5.40;0.93;;;6.70;99.90;;;;;;5105702;28;20048;-81
2023/05/03 04:18:29;;;;;;;2.33;1.00;;;6.80;99.90;;;;;;5090540;28;20719;-84
2023/05/03 04:20:58;;;;;;;3.58;1.20;;;6.80;99.90;;;;;;5116872;27;20047;-83
2023/05/03 04:23:27;;;;;;;1.98;0.70;;;6.80;99.90;;;;;;5106256;27;20071;-76
2023/05/03 04:25:56;;;;;;;4.43;1.35;;;6.70;99.90;;;;;;5113179;28;20055;-75
2023/05/03 04:28:26;;;;;;;2.05;0.93;;;6.60;99.90;;;;;;5100881;28;20492;-76
2023/05/03 04:30:55;;;;;;;1.95;0.80;;;6.60;99.90;;;;;;5081710;28;20056;-76
2023/05/03 04:33:28;;;;;;;3.15;1.10;;;6.60;99.90;;;;;;5098063;28;20404;-77
2023/05/03 04:36:01;;;;;;;4.32;0.95;;;6.60;99.90;;;;;;5087041;28;20166;-77
2023/05/03 04:38:28;;;;;;;2.28;1.35;;;6.60;99.90;;;;;;5110273;28;20047;-76
2023/05/03 04:40:58;;;;;;;2.78;0.90;;;6.70;99.90;;;;;;5103782;28;20043;-76
2023/05/03 04:43:26;;;;;;;3.63;0.98;;;6.70;99.90;;;;;;5095963;28;20051;-76
2023/05/03 04:45:55;;;;;;;2.10;0.70;;;6.70;99.90;;;;;;5093924;28;20070;-77
2023/05/03 04:48:27;;;;;;;5.10;0.98;;;6.60;99.90;;;;;;5108743;28;20401;-73
2023/05/03 04:50:55;;;;;;;3.40;1.20;;;6.60;99.90;;;;;;5106575;28;20047;-72
2023/05/03 04:53:24;;;;;;;5.07;1.65;;;6.60;99.90;;;;;;5112214;28;20090;-72
2023/05/03 04:56:01;;;;;;;6.20;1.95;;;6.70;99.90;;;;;;5111472;27;20144;-73
2023/05/03 04:58:30;;;;;;;1.38;0.80;;;6.70;99.90;;;;;;5098589;28;20458;-73
2023/05/03 05:00:59;;;;;;;3.47;1.15;;;6.70;99.90;;;;;;5096634;28;20077;-72
2023/05/03 05:03:32;;;;;;;1.55;1.00;;;6.80;99.90;;;;;;5112349;28;20044;-76
2023/05/03 05:06:02;;;;;;;4.05;1.08;;;6.80;99.90;;;;;;5106937;28;20052;-78
2023/05/03 05:08:32;;;;;;;2.33;1.25;;;6.90;99.90;;;;;;5092568;28;20047;-76
2023/05/03 05:11:02;;;;;;;1.80;1.00;;;6.90;99.90;;;;;;5107574;28;20051;-84
2023/05/03 05:13:32;;;;;;;2.33;1.10;;;6.90;99.90;;;;;;5091308;28;20407;-84
2023/05/03 05:15:59;;;;;;;2.15;0.88;;;7.10;99.90;;;;;;5104116;28;20047;-83
2023/05/03 05:18:27;;;;;;;2.72;1.15;;;7.30;99.90;;;;;;5099928;28;20071;-82
2023/05/03 05:20:57;;;;;;;2.58;0.93;;;7.60;99.90;;;;;;5104919;28;20553;-85
2023/05/03 05:23:26;;;;;;;5.65;1.17;;;7.80;99.90;;;;;;5103205;28;20052;-85
2023/05/03 05:25:59;;;;;;;3.42;1.15;;;7.80;99.90;;;;;;5109116;28;20043;-81
2023/05/03 05:28:27;;;;;;;1.95;1.20;;;8.50;99.90;;;;;;5104689;28;20051;-80
2023/05/03 05:30:56;;;;;;;2.85;1.45;;;8.70;99.90;;;;;;5107419;28;20135;-81
2023/05/03 05:33:23;;;;;;;4.57;1.10;;;9.20;99.90;;;;;;5094103;28;20039;-83
2023/05/03 05:35:51;;;;;;;1.65;1.00;;;9.50;99.90;;;;;;5105854;28;20048;-82
2023/05/03 05:38:23;;;;;;;2.47;1.13;;;9.80;99.90;;;;;;5081584;28;20047;-82
2023/05/03 05:40:53;;;;;;;3.50;1.35;;;10.00;99.90;;;;;;5108104;27;20036;-83
2023/05/03 05:43:21;;;;;;;2.67;1.13;;;10.20;99.90;;;;;;5111861;28;20054;-83
2023/05/03 05:45:50;;;;;;;3.10;1.17;;;10.50;99.90;;;;;;5109092;28;20048;-83
2023/05/03 05:48:19;;;;;;;1.13;0.70;;;10.90;99.90;;;;;;5103326;28;20222;-83
2023/05/03 05:50:47;;;;;;;7.03;1.17;;;11.10;99.90;;;;;;5109603;28;20052;-82
2023/05/03 05:53:15;;;;;;;2.55;0.93;;;11.50;99.90;;;;;;5104208;28;20154;-75
2023/05/03 05:55:51;;;;;;;2.55;0.82;;;11.50;99.90;;;;;;5102751;28;20048;-83
2023/05/03 05:58:19;;;;;;;3.63;1.00;;;11.50;99.90;;;;;;5110843;28;20527;-82
2023/05/03 06:00:51;;;;;;;3.20;1.13;;;11.50;99.90;;;;;;5106859;28;20040;-82
2023/05/03 06:03:25;;;;;;;2.65;1.10;;;11.50;99.90;;;;;;5086397;28;20055;-82
2023/05/03 06:05:53;;;;;;;2.25;0.98;;;11.70;99.90;;;;;;5095814;28;20078;-78
2023/05/03 06:08:21;;;;;;;2.25;1.10;;;11.90;99.90;;;;;;5106706;28;20047;-83
2023/05/03 06:10:48;;;;;;;4.32;1.10;;;12.20;99.90;;;;;;5081550;28;20044;-75
2023/05/03 06:13:17;;;;;;;4.05;1.02;;;12.20;99.60;;;;;;5084241;28;20050;-78
2023/05/03 06:15:46;;;;;;;4.60;0.80;;;12.20;99.90;;;;;;5109759;28;20051;-79
2023/05/03 06:18:13;;;;;;;1.80;0.80;;;12.50;99.00;;;;;;5106202;28;20097;-77
2023/05/03 06:20:41;;;;;;;2.50;1.05;;;12.60;97.60;;;;;;5106167;28;20149;-74
2023/05/03 06:23:09;;;;;;;6.13;0.88;;;12.80;96.50;;;;;;5106100;28;20488;-74
2023/05/03 06:25:38;;;;;;;1.45;1.10;;;13.10;96.20;;;;;;5081528;28;20147;-74
2023/05/03 06:28:05;;;;;;;2.03;1.20;;;13.40;94.10;;;;;;5107378;28;20191;-76
2023/05/03 06:30:36;;;;;;;5.07;1.20;;;13.50;93.20;;;;;;5107028;28;20040;-75
2023/05/03 06:33:14;;;;;;;4.30;1.17;;;13.60;92.40;;;;;;5078657;28;20422;-75
2023/05/03 06:35:43;;;;;;;5.43;1.05;;;13.80;91.00;;;;;;5098986;27;20051;-75
2023/05/03 06:38:11;;;;;;;3.20;0.82;;;13.90;90.30;;;;;;5088000;28;20044;-74
2023/05/03 06:40:40;;;;;;;0.93;0.82;;;14.00;87.30;;;;;;5102450;28;20051;-75
2023/05/03 06:43:07;;;;;;;3.92;0.95;;;14.10;86.60;;;;;;5084222;28;20336;-73
2023/05/03 06:46:16;;;;;;;2.80;0.77;;;14.20;85.50;;;;;;5103372;28;20483;-74
2023/05/03 06:49:02;;;;;;;3.20;0.80;;;14.50;83.70;;;;;;5071222;27;20052;-74
2023/05/03 06:51:31;;;;;;;4.38;0.85;;;14.60;80.30;;;;;;5103001;28;20446;-74
2023/05/03 06:54:05;;;;;;;3.47;1.00;;;15.00;77.50;;;;;;5104827;28;20051;-73
2023/05/03 06:56:33;;;;;;;4.65;0.90;;;15.30;76.00;;;;;;5101687;28;20453;-74
2023/05/03 06:59:00;;;;;;;4.93;1.02;;;15.50;74.50;;;;;;5101826;28;20047;-73
2023/05/03 07:01:28;;;;;;;1.95;0.88;;;15.50;71.80;;;;;;5103548;27;20393;-74
2023/05/03 07:03:55;;;;;;;4.65;1.13;;;15.70;71.10;;;;;;5107984;28;20063;-74
2023/05/03 07:06:24;;;;;;;7.20;0.80;;;15.70;70.00;;;;;;5109225;27;20051;-75
2023/05/03 07:08:52;;;;;;;2.90;0.93;;;15.90;69.70;;;;;;5103145;27;20063;-74
2023/05/03 07:11:22;;;;;;;6.43;0.93;;;16.00;69.10;;;;;;5083169;28;20051;-74
2023/05/03 07:13:51;;;;;;;2.78;0.98;;;16.30;67.50;;;;;;5072611;28;20056;-73
2023/05/03 07:16:18;;;;;;;2.55;0.73;;;16.60;67.10;;;;;;5068097;28;20523;-78
2023/05/03 07:18:46;;;;;;;4.13;0.73;;;16.70;66.10;;;;;;5067310;28;20144;-77
2023/05/03 07:21:13;;;;;;;3.30;0.80;;;16.50;66.60;;;;;;5068350;28;20044;-77
2023/05/03 07:23:42;;;;;;;2.17;0.77;;;16.30;65.90;;;;;;5076614;28;20106;-79
2023/05/03 07:26:09;;;;;;;0.98;0.70;;;16.20;66.50;;;;;;5064929;28;20044;-77
2023/05/03 07:28:37;;;;;;;3.08;0.70;;;16.20;67.80;;;;;;5067414;28;20041;-79
2023/05/03 07:31:04;;;;;;;5.10;1.00;;;16.50;65.70;;;;;;5070993;28;20398;-77
2023/05/03 07:33:36;;;;;;;1.35;0.95;;;16.30;66.60;;;;;;5061157;28;20052;-79
2023/05/03 07:36:03;;;;;;;5.63;1.10;;;16.50;65.90;;;;;;5063296;28;20497;-76
2023/05/03 07:38:31;;;;;;;2.85;1.02;;;16.70;65.10;;;;;;5069598;28;20993;-77
2023/05/03 07:40:59;;;;;;;3.72;1.05;;;16.70;65.10;;;;;;5063979;28;20057;-76
2023/05/03 07:43:26;;;;;;;3.60;0.82;;;16.90;65.00;;;;;;5058535;28;20051;-77
2023/05/03 07:45:54;;;;;;;2.67;0.85;;;17.30;63.80;;;;;;5068681;28;20045;-77
2023/05/03 07:48:21;;;;;;;3.90;1.00;;;17.70;63.30;;;;;;5071361;28;20072;-77
2023/05/03 07:50:48;;;;;;;1.70;0.60;;;18.00;61.50;;;;;;5062374;28;20143;-77
2023/05/03 07:53:16;;;;;;;3.15;1.10;;;18.10;60.70;;;;;;5050481;28;20048;-74
2023/05/03 07:55:43;;;;;;;2.80;1.00;;;18.40;61.10;;;;;;5059870;28;20056;-76
2023/05/03 07:58:12;;;;;;;4.72;1.00;;;18.70;60.00;;;;;;5068010;28;20501;-74
2023/05/03 08:00:39;;;;;;;1.63;0.90;;;19.10;59.30;;;;;;5069408;28;20058;-73
2023/05/03 08:03:07;;;;;;;2.75;0.95;;;19.20;58.50;;;;;;5085465;28;20048;-73
2023/05/03 08:05:35;;;;;;;2.25;1.00;;;19.10;58.00;;;;;;5044005;28;20095;-73
2023/05/03 08:08:04;;;;;;;3.00;1.05;;;19.10;57.80;;;;;;5043303;28;20052;-73
2023/05/03 08:10:36;;;;;;;0.98;0.75;;;19.20;57.50;;;;;;5066850;28;20063;-74
2023/05/03 08:13:05;;;;;;;3.17;0.98;;;18.90;57.60;;;;;;5070210;28;20052;-75
2023/05/03 08:15:33;;;;;;;1.33;0.93;;;18.80;58.60;;;;;;5087699;28;20094;-74
2023/05/03 08:18:01;;;;;;;2.63;0.90;;;19.30;57.20;;;;;;5072606;28;20424;-74
2023/05/03 08:20:29;;;;;;;5.78;0.90;;;;;;;;;;5089336;28;20533;-72
2023/05/03 08:22:56;;;;;;;1.80;0.90;;;19.80;56.30;;;;;;5086522;28;20139;-73
2023/05/03 08:25:24;;;;;;;4.50;1.25;;;20.10;56.20;;;;;;5072107;28;20492;-73
2023/05/03 08:27:52;;;;;;;1.15;0.80;;;20.30;54.70;;;;;;5072318;28;20064;-74
2023/05/03 08:30:20;;;;;;;2.58;1.00;;;20.00;54.70;;;;;;5072084;28;20146;-73
2023/05/03 08:32:50;;;;;;;3.28;0.82;;;20.30;54.80;;;;;;5072842;28;20044;-73
2023/05/03 08:35:18;;;;;;;1.98;1.25;;;20.50;54.50;;;;;;5072618;28;20417;-74
2023/05/03 08:37:45;;;;;;;2.38;1.20;;;20.50;53.90;;;;;;5061635;28;20057;-73
2023/05/03 08:40:14;;;;;;;3.63;0.90;;;20.70;53.90;;;;;;5069016;28;20068;-74
2023/05/03 08:42:43;;;;;;;13.13;1.10;;;20.70;53.70;;;;;;5082061;28;20044;-74
2023/05/03 08:45:13;;;;;;;6.43;0.95;;;20.70;53.80;;;;;;5072703;28;20143;-75
2023/05/03 08:47:43;;;;;;;4.05;0.82;;;20.80;53.40;;;;;;5073392;28;20114;-76
2023/05/03 08:50:13;;;;;;;5.65;1.00;;;20.80;52.90;;;;;;5073420;28;20066;-72
2023/05/03 08:52:41;;;;;;;8.13;1.27;;;21.00;53.40;;;;;;5064236;28;20140;-73
2023/05/03 08:55:09;;;;;;;2.88;0.90;;;20.90;52.70;;;;;;5058928;28;20044;-73
2023/05/03 08:57:37;;;;;;;6.35;1.20;;;21.20;52.70;;;;;;5069691;28;20068;-73
2023/05/03 09:00:09;;;;;;;2.22;0.82;;;21.40;53.10;;;;;;5068978;28;20413;-74
2023/05/03 09:02:38;;;;;;;1.83;0.88;;;21.50;51.30;;;;;;5069328;28;20171;-74
2023/05/03 09:05:06;;;;;;;2.17;0.80;;;;;;;;;;5070681;28;20143;-74
2023/05/03 09:07:35;;;;;;;3.20;0.88;;;22.10;50.30;;;;;;5069052;28;20090;-74
2023/05/03 09:10:02;;;;;;;4.32;0.93;;;22.10;49.80;;;;;;5065800;28;20131;-76
2023/05/03 09:12:35;;;;;;;2.28;0.82;;;21.90;50.50;;;;;;5072420;28;20057;-75
2023/05/03 09:15:05;;;;;;;2.33;0.90;;;21.70;50.50;;;;;;5071559;28;20064;-75
2023/05/03 09:17:33;;;;;;;4.57;1.40;;;21.80;51.10;;;;;;5070381;28;20036;-76
2023/05/03 09:20:00;;;;;;;7.10;0.98;;;22.00;50.40;;;;;;5069482;28;20049;-76
2023/05/03 09:22:31;;;;;;;3.33;1.10;;;22.20;50.50;;;;;;5067134;28;20051;-75
2023/05/03 09:25:01;;;;;;;4.55;0.93;;;22.30;50.20;;;;;;5063790;28;20131;-75
2023/05/03 09:27:28;;;;;;;3.45;0.98;;;22.40;49.50;;;;;;5067049;28;20140;-75
2023/05/03 09:29:55;;;;;;;5.05;1.23;;;22.40;49.30;;;;;;5064895;28;20056;-75
2023/05/03 09:32:23;;;;;;;4.93;1.65;;;22.10;48.90;;;;;;5071627;28;20055;-74
2023/05/03 09:34:51;;;;;;;5.18;2.22;;;22.00;49.20;;;;;;5072209;28;20793;-74
2023/05/03 09:37:37;;;;;;;1.10;0.70;;;21.90;49.30;;;;;;5066895;28;20516;-74
2023/05/03 09:40:16;;;;;;;3.67;1.15;;;21.70;50.10;;;;;;5052001;28;20063;-79
2023/05/03 09:43:05;;;;;;;4.18;0.95;;;22.10;50.30;;;;;;5064067;28;20517;-76
2023/05/03 09:45:34;;;;;;;2.88;1.05;;;22.80;47.60;;;;;;5058046;28;20606;-77
2023/05/03 09:48:03;;;;;;;1.70;0.90;;;22.60;47.50;;;;;;5066904;28;20055;-78
2023/05/03 09:50:32;;;;;;;3.05;0.80;;;22.70;47.60;;;;;;5058610;28;20049;-77
2023/05/03 09:53:03;;;;;;;1.30;0.70;;;22.70;47.70;;;;;;5066261;28;20053;-79
2023/05/03 09:55:51;;;;;;;4.22;1.00;;;23.00;46.20;;;;;;5065210;28;20617;-78
2023/05/03 09:58:20;;;;;;;5.38;1.02;;;23.30;45.60;;;;;;5058242;28;20505;-79
2023/05/03 10:00:50;;;;;;;3.97;1.00;;;23.00;45.40;;;;;;5044681;28;20516;-79
2023/05/03 10:03:23;;;;;;;4.70;0.75;;;22.80;46.40;;;;;;5066447;28;20098;-81
2023/05/03 10:05:51;;;;;;;;;;;23.10;46.20;;;;;;5069732;28;20120;-80
2023/05/03 10:08:32;;;;;;;1.73;0.80;;;23.30;45.30;;;;;;5066355;28;20389;-80
2023/05/03 10:11:03;;;;;;;1.98;0.73;;;23.80;44.80;;;;;;5070845;28;20559;-80
2023/05/03 10:13:31;;;;;;;2.55;1.00;;;23.70;45.60;;;;;;5062192;28;20134;-79
2023/05/03 10:16:03;;;;;;;1.63;0.60;;;23.60;46.20;;;;;;5068912;28;20096;-81
2023/05/03 10:18:33;;;;;;;0.88;0.68;;;23.90;44.90;;;;;;5067148;28;20487;-79
2023/05/03 10:21:06;;;;;;;5.57;0.77;;;23.80;44.90;;;;;;5059970;28;20045;-78
2023/05/03 10:23:33;;;;;;;3.42;0.90;;;23.80;44.60;;;;;;5055750;28;20139;-80
2023/05/03 10:26:15;;;;;;;3.03;0.93;;;23.80;44.70;;;;;;5069167;28;20079;-78
2023/05/03 10:28:42;;;;;;;3.87;0.80;;;23.90;44.20;;;;;;5067272;28;20052;-79
2023/05/03 10:31:44;;;;;;;1.90;0.70;;;23.90;44.10;;;;;;5071388;28;20047;-74
2023/05/03 10:34:22;;;;;;;1.40;0.70;;;23.90;43.70;;;;;;5065664;28;20504;-75
2023/05/03 10:36:52;;;;;;;4.28;1.20;;;23.70;44.30;;;;;;5046735;28;20513;-75
2023/05/03 10:39:20;;;;;;;4.68;0.68;;;23.70;43.80;;;;;;5051472;28;20136;-75
2023/05/03 10:42:00;;;;;;;4.57;0.98;;;23.90;43.60;;;;;;5056599;28;20039;-75
2023/05/03 10:44:28;;;;;;;1.30;0.60;;;24.30;42.90;;;;;;5083770;28;20090;-74
2023/05/03 10:46:55;;;;;;;2.70;0.65;;;24.20;42.40;;;;;;5068646;28;20079;-75
2023/05/03 10:49:25;;;;;;;0.65;0.52;;;23.90;42.80;;;;;;5066584;28;20490;-74
2023/05/03 10:51:52;;;;;;;2.13;0.70;;;23.70;43.40;;;;;;5061012;28;20417;-75
2023/05/03 10:54:20;;;;;;;2.10;0.60;;;23.80;43.20;;;;;;5069123;28;20052;-75
2023/05/03 10:56:55;;;;;;;6.68;0.63;;;23.80;43.10;;;;;;5057864;28;20056;-75
2023/05/03 10:59:24;;;;;;;2.85;0.50;;;24.00;42.60;;;;;;5049311;28;20575;-75
2023/05/03 11:01:53;;;;;;;3.42;1.25;;;24.00;42.90;;;;;;5067529;28;20106;-75
2023/05/03 11:04:44;;;;;;;10.20;0.90;;;23.90;42.90;;;;;;5070678;28;20487;-77
2023/05/03 11:07:20;;;;;;;3.40;0.45;;;24.30;43.30;;;;;;5065143;28;20113;-76
2023/05/03 11:09:47;;;;;;;1.48;0.57;;;24.50;42.40;;;;;;5041676;28;20413;-80
2023/05/03 11:12:14;;;;;;;2.22;0.50;;;23.60;42.70;;;;;;5066050;28;20501;-76
2023/05/03 11:14:43;;;;;;;4.20;0.93;;;21.90;45.10;;;;;;5061962;28;20139;-80
2023/05/03 11:17:10;;;;;;;2.10;0.95;;;20.50;46.90;;;;;;5058702;28;20033;-80
2023/05/03 11:19:38;;;;;;;1.92;0.60;;;19.50;48.20;;;;;;5066692;28;20045;-83
2023/05/03 11:22:06;;;;;;;5.25;0.90;;;18.80;49.50;;;;;;5064968;28;20043;-83
2023/05/03 11:24:33;;;;;;;4.03;0.70;;;18.90;50.60;;;;;;5058876;28;20056;-83
2023/05/03 11:27:01;;;;;;;1.48;0.65;;;19.00;49.30;;;;;;5066399;28;20082;-81
2023/05/03 11:29:28;;;;;;;3.20;0.80;;;18.90;49.90;;;;;;5062907;28;20045;-81
2023/05/03 11:31:57;;;;;;;4.20;1.00;;;19.30;49.80;;;;;;5065355;28;20076;-80
2023/05/03 11:34:25;;;;;;;2.20;0.70;;;19.00;49.30;;;;;;5070152;28;20048;-83
2023/05/03 11:36:52;;;;;;;3.40;0.70;;;18.20;50.70;;;;;;5058601;28;20045;-82
2023/05/03 11:39:20;;;;;;;3.75;0.68;;;17.30;51.60;;;;;;5050222;28;20058;-82
2023/05/03 11:42:03;;;;;;;3.58;0.60;;;16.70;52.70;;;;;;5060942;28;20572;-82
2023/05/03 11:44:30;;;;;;;;;;;16.60;53.70;;;;;;5069828;28;20053;-82
2023/05/03 11:46:59;;;;;;;0.95;0.60;;;16.30;53.60;;;;;;5066903;28;19924;-80
2023/05/03 11:49:26;;;;;;;2.10;0.65;;;15.70;52.90;;;;;;5071573;28;20493;-83
2023/05/03 11:51:53;;;;;;;7.18;0.85;;;15.30;54.30;;;;;;5071259;28;20122;-81
2023/05/03 11:54:22;;;;;;;1.60;0.80;;;14.90;55.00;;;;;;5071627;28;20060;-81
2023/05/03 11:56:50;;;;;;;3.72;0.77;;;14.80;56.40;;;;;;5070435;28;20040;-81
2023/05/03 11:59:18;;;;;;;3.28;1.00;;;14.80;56.70;;;;;;5038409;28;20045;-82
2023/05/03 12:01:48;;;;;;;5.95;0.60;;;14.80;57.10;;;;;;5072280;28;20040;-82
2023/05/03 12:04:17;;;;;;;1.67;0.80;;;14.90;57.90;;;;;;5070651;28;20040;-83
2023/05/03 12:06:51;;;;;;;4.00;0.70;;;15.30;56.30;;;;;;5064594;28;20051;-82
2023/05/03 12:09:20;;;;;;;5.78;0.70;;;15.90;55.30;;;;;;5070077;28;20596;-82
2023/05/03 12:11:49;;;;;;;2.08;0.60;;;16.30;54.30;;;;;;5067105;28;20286;-82
2023/05/03 12:14:16;;;;;;;2.50;0.80;;;16.50;53.50;;;;;;5072292;28;20055;-82
2023/05/03 12:16:48;;;;;;;4.63;0.65;;;16.60;53.50;;;;;;5071053;28;20685;-82
2023/05/03 12:19:25;;;;;;;5.95;0.90;;;17.10;53.50;;;;;;5068826;28;20064;-81
2023/05/03 12:21:53;;;;;;;4.50;0.57;;;18.30;50.60;;;;;;5072229;28;20048;-80
2023/05/03 12:24:22;;;;;;;11.18;0.77;;;18.30;50.50;;;;;;5073085;28;20558;-81
2023/05/03 12:26:49;;;;;;;3.20;0.95;;;19.00;50.00;;;;;;5068377;28;20401;-84
2023/05/03 12:29:18;;;;;;;5.78;0.55;;;19.90;48.30;;;;;;5072324;28;20048;-82
2023/05/03 12:31:46;;;;;;;3.75;0.93;;;21.20;47.00;;;;;;5072090;28;20463;-82
2023/05/03 12:34:14;;;;;;;3.90;0.60;;;21.30;45.70;;;;;;5072031;28;20056;-83
2023/05/03 12:36:42;;;;;;;1.50;0.50;;;19.80;46.50;;;;;;5070902;28;20045;-82
2023/05/03 12:39:10;;;;;;;2.65;0.60;;;17.90;49.60;;;;;;5072843;28;20044;-82
2023/05/03 12:41:38;;;;;;;4.25;0.98;;;16.70;52.30;;;;;;5070454;28;20040;-82
2023/05/03 12:44:05;;;;;;;3.00;1.23;;;16.30;52.40;;;;;;5072670;28;20095;-76
2023/05/03 12:46:33;;;;;;;1.35;0.55;;;16.70;52.80;;;;;;5068793;28;20052;-78
2023/05/03 12:49:00;;;;;;;4.05;0.73;;;17.70;52.70;;;;;;5070744;28;20131;-75
2023/05/03 12:51:27;;;;;;;1.85;0.60;;;19.60;48.80;;;;;;5070148;28;20151;-75
2023/05/03 12:53:56;;;;;;;2.20;0.77;;;19.80;47.00;;;;;;5070341;28;20094;-75
2023/05/03 12:56:23;;;;;;;0.50;0.50;;;18.80;48.60;;;;;;5064319;28;20050;-74
2023/05/03 12:58:51;;;;;;;2.17;0.63;;;19.00;49.00;;;;;;5068719;28;20412;-74
2023/05/03 13:01:21;;;;;;;2.25;0.75;;;20.50;47.50;;;;;;5070923;28;20519;-73
2023/05/03 13:03:48;;;;;;;2.10;0.88;;;22.40;45.10;;;;;;5067030;28;20056;-74
2023/05/03 13:06:15;;;;;;;2.67;0.50;;;23.70;42.80;;;;;;5071056;28;20436;-76